sensor_id;sensor_type;location;lat;lon;timestamp;pressure;altitude;pressure_sealevel;temperature;humidity
62942;BME280;49042;47.318;19.874;2023-02-16T00:00:01;101834.44;;;-3.04;100.00
62942;BME280;49042;47.318;19.874;2023-02-16T00:03:03;101835.06;;;-3.30;100.00
62942;BME280;49042;47.318;19.874;2023-02-16T00:06:04;101833.41;;;-3.53;100.00
62942;BME280;49042;47.318;19.874;2023-02-16T00:09:06;101843.47;;;-3.55;100.00
62942;BME280;49042;47.318;19.874;2023-02-16T00:12:16;101834.06;;;-3.39;100.00
62942;BME280;49042;47.318;19.874;2023-02-16T00:15:37;101835.69;;;-3.40;100.00
62942;BME280;49042;47.318;19.874;2023-02-16T00:18:40;101828.84;;;-2.92;100.00
62942;BME280;49042;47.318;19.874;2023-02-16T00:21:41;101835.22;;;-2.56;100.00
62942;BME280;49042;47.318;19.874;2023-02-16T00:24:43;101825.88;;;-2.39;100.00
62942;BME280;49042;47.318;19.874;2023-02-16T00:27:45;101836.47;;;-2.11;100.00
62942;BME280;49042;47.318;19.874;2023-02-16T00:30:46;101839.91;;;-3.01;100.00
62942;BME280;49042;47.318;19.874;2023-02-16T00:33:50;101831.84;;;-2.80;100.00
62942;BME280;49042;47.318;19.874;2023-02-16T00:36:52;101841.16;;;-2.48;100.00
62942;BME280;49042;47.318;19.874;2023-02-16T00:39:54;101839.25;;;-2.91;100.00
62942;BME280;49042;47.318;19.874;2023-02-16T00:42:56;101828.38;;;-3.37;100.00
62942;BME280;49042;47.318;19.874;2023-02-16T00:45:58;101831.19;;;-2.86;100.00
62942;BME280;49042;47.318;19.874;2023-02-16T00:49:00;101835.69;;;-2.35;100.00
62942;BME280;49042;47.318;19.874;2023-02-16T00:52:53;101835.97;;;-2.41;100.00
62942;BME280;49042;47.318;19.874;2023-02-16T00:55:33;101828.81;;;-2.69;100.00
62942;BME280;49042;47.318;19.874;2023-02-16T00:58:35;101819.38;;;-2.61;100.00
62942;BME280;49042;47.318;19.874;2023-02-16T01:01:37;101821.69;;;-3.44;100.00
62942;BME280;49042;47.318;19.874;2023-02-16T01:04:39;101819.69;;;-3.70;100.00
62942;BME280;49042;47.318;19.874;2023-02-16T01:07:41;101817.72;;;-3.72;100.00
62942;BME280;49042;47.318;19.874;2023-02-16T01:11:03;101815.31;;;-3.94;100.00
62942;BME280;49042;47.318;19.874;2023-02-16T01:14:11;101813.94;;;-4.07;100.00
62942;BME280;49042;47.318;19.874;2023-02-16T01:17:13;101805.16;;;-3.31;100.00
62942;BME280;49042;47.318;19.874;2023-02-16T01:20:18;101807.44;;;-2.85;100.00
62942;BME280;49042;47.318;19.874;2023-02-16T01:23:20;101798.47;;;-2.82;100.00
62942;BME280;49042;47.318;19.874;2023-02-16T01:26:22;101798.88;;;-3.42;100.00
62942;BME280;49042;47.318;19.874;2023-02-16T01:29:24;101794.16;;;-3.46;100.00
62942;BME280;49042;47.318;19.874;2023-02-16T01:32:26;101790.88;;;-3.05;100.00
62942;BME280;49042;47.318;19.874;2023-02-16T01:35:30;101786.09;;;-2.86;100.00
62942;BME280;49042;47.318;19.874;2023-02-16T01:38:33;101786.69;;;-2.88;100.00
62942;BME280;49042;47.318;19.874;2023-02-16T01:44:58;101786.37;;;-2.92;100.00
62942;BME280;49042;47.318;19.874;2023-02-16T01:48:05;101789.72;;;-3.00;100.00
62942;BME280;49042;47.318;19.874;2023-02-16T01:51:27;101780.75;;;-2.96;100.00
62942;BME280;49042;47.318;19.874;2023-02-16T02:03:59;101762.78;;;-2.89;100.00
62942;BME280;49042;47.318;19.874;2023-02-16T02:07:33;101756.16;;;-2.80;100.00
62942;BME280;49042;47.318;19.874;2023-02-16T02:10:43;101756.13;;;-2.96;100.00
62942;BME280;49042;47.318;19.874;2023-02-16T02:13:56;101748.47;;;-2.96;100.00
62942;BME280;49042;47.318;19.874;2023-02-16T02:17:06;101743.84;;;-3.24;100.00
62942;BME280;49042;47.318;19.874;2023-02-16T02:20:17;101750.19;;;-3.60;100.00
62942;BME280;49042;47.318;19.874;2023-02-16T02:30:46;101754.41;;;-3.84;100.00
62942;BME280;49042;47.318;19.874;2023-02-16T02:41:04;101747.25;;;-4.65;100.00
62942;BME280;49042;47.318;19.874;2023-02-16T02:44:09;101741.22;;;-4.27;100.00
62942;BME280;49042;47.318;19.874;2023-02-16T02:47:11;101740.06;;;-4.14;100.00
62942;BME280;49042;47.318;19.874;2023-02-16T02:50:46;101739.22;;;-4.53;100.00
62942;BME280;49042;47.318;19.874;2023-02-16T02:57:43;101735.03;;;-3.98;100.00
62942;BME280;49042;47.318;19.874;2023-02-16T03:01:06;101732.09;;;-3.94;100.00
62942;BME280;49042;47.318;19.874;2023-02-16T03:04:10;101733.91;;;-3.93;100.00
62942;BME280;49042;47.318;19.874;2023-02-16T03:07:13;101734.22;;;-3.66;100.00
62942;BME280;49042;47.318;19.874;2023-02-16T03:10:22;101739.75;;;-3.94;100.00
62942;BME280;49042;47.318;19.874;2023-02-16T03:13:52;101735.22;;;-3.96;100.00
62942;BME280;49042;47.318;19.874;2023-02-16T03:16:59;101728.00;;;-3.84;100.00
62942;BME280;49042;47.318;19.874;2023-02-16T03:20:20;101735.25;;;-3.80;100.00
62942;BME280;49042;47.318;19.874;2023-02-16T03:23:41;101747.00;;;-4.52;100.00
62942;BME280;49042;47.318;19.874;2023-02-16T03:27:03;101748.25;;;-4.79;100.00
62942;BME280;49042;47.318;19.874;2023-02-16T03:30:24;101744.31;;;-4.99;100.00
62942;BME280;49042;47.318;19.874;2023-02-16T03:33:28;101744.91;;;-5.16;100.00
62942;BME280;49042;47.318;19.874;2023-02-16T03:36:32;101739.81;;;-5.16;100.00
62942;BME280;49042;47.318;19.874;2023-02-16T03:39:35;101733.62;;;-4.65;100.00
62942;BME280;49042;47.318;19.874;2023-02-16T03:43:02;101732.66;;;-4.51;100.00
62942;BME280;49042;47.318;19.874;2023-02-16T03:46:04;101732.59;;;-4.13;100.00
62942;BME280;49042;47.318;19.874;2023-02-16T03:49:07;101728.81;;;-3.93;100.00
62942;BME280;49042;47.318;19.874;2023-02-16T03:52:09;101734.38;;;-4.04;100.00
62942;BME280;49042;47.318;19.874;2023-02-16T03:55:10;101733.94;;;-4.24;100.00
62942;BME280;49042;47.318;19.874;2023-02-16T03:58:16;101736.66;;;-3.99;100.00
62942;BME280;49042;47.318;19.874;2023-02-16T04:01:18;101724.25;;;-3.95;100.00
62942;BME280;49042;47.318;19.874;2023-02-16T04:04:20;101732.16;;;-4.01;100.00
62942;BME280;49042;47.318;19.874;2023-02-16T04:07:21;101725.69;;;-3.90;100.00
62942;BME280;49042;47.318;19.874;2023-02-16T04:10:23;101736.38;;;-3.62;100.00
62942;BME280;49042;47.318;19.874;2023-02-16T04:13:25;101733.84;;;-3.62;100.00
62942;BME280;49042;47.318;19.874;2023-02-16T04:16:27;101740.56;;;-3.62;100.00
62942;BME280;49042;47.318;19.874;2023-02-16T04:19:28;101723.00;;;-3.52;100.00
62942;BME280;49042;47.318;19.874;2023-02-16T04:22:31;101722.06;;;-3.69;100.00
62942;BME280;49042;47.318;19.874;2023-02-16T04:25:33;101728.50;;;-4.58;100.00
62942;BME280;49042;47.318;19.874;2023-02-16T04:28:34;101720.16;;;-5.02;100.00
62942;BME280;49042;47.318;19.874;2023-02-16T04:31:36;101722.22;;;-4.76;100.00
62942;BME280;49042;47.318;19.874;2023-02-16T04:34:38;101715.31;;;-4.39;100.00
62942;BME280;49042;47.318;19.874;2023-02-16T04:37:40;101716.78;;;-4.79;100.00
62942;BME280;49042;47.318;19.874;2023-02-16T04:40:42;101705.91;;;-5.46;100.00
62942;BME280;49042;47.318;19.874;2023-02-16T04:43:44;101716.06;;;-5.39;100.00
62942;BME280;49042;47.318;19.874;2023-02-16T04:46:45;101712.41;;;-5.33;100.00
62942;BME280;49042;47.318;19.874;2023-02-16T04:49:47;101713.00;;;-5.58;100.00
62942;BME280;49042;47.318;19.874;2023-02-16T04:52:50;101707.22;;;-5.72;100.00
62942;BME280;49042;47.318;19.874;2023-02-16T04:55:52;101714.31;;;-5.84;100.00
62942;BME280;49042;47.318;19.874;2023-02-16T04:58:54;101717.56;;;-5.92;100.00
62942;BME280;49042;47.318;19.874;2023-02-16T05:01:56;101720.31;;;-5.98;100.00
62942;BME280;49042;47.318;19.874;2023-02-16T05:04:59;101722.47;;;-6.01;100.00
62942;BME280;49042;47.318;19.874;2023-02-16T05:08:01;101716.50;;;-6.09;100.00
62942;BME280;49042;47.318;19.874;2023-02-16T05:11:03;101720.09;;;-6.21;100.00
62942;BME280;49042;47.318;19.874;2023-02-16T05:14:35;101721.78;;;-6.22;100.00
62942;BME280;49042;47.318;19.874;2023-02-16T05:17:42;101723.22;;;-6.17;100.00
62942;BME280;49042;47.318;19.874;2023-02-16T05:20:44;101724.25;;;-6.07;100.00
62942;BME280;49042;47.318;19.874;2023-02-16T05:24:07;101728.31;;;-6.09;100.00
62942;BME280;49042;47.318;19.874;2023-02-16T05:27:18;101727.59;;;-6.08;100.00
62942;BME280;49042;47.318;19.874;2023-02-16T05:30:20;101725.94;;;-6.15;100.00
62942;BME280;49042;47.318;19.874;2023-02-16T05:33:22;101720.31;;;-6.13;100.00
62942;BME280;49042;47.318;19.874;2023-02-16T05:36:24;101722.47;;;-6.01;100.00
62942;BME280;49042;47.318;19.874;2023-02-16T05:39:26;101731.00;;;-5.93;100.00
62942;BME280;49042;47.318;19.874;2023-02-16T05:42:28;101732.81;;;-5.85;100.00
62942;BME280;49042;47.318;19.874;2023-02-16T05:45:30;101737.19;;;-5.84;100.00
62942;BME280;49042;47.318;19.874;2023-02-16T05:48:32;101740.09;;;-5.73;100.00
62942;BME280;49042;47.318;19.874;2023-02-16T05:51:35;101739.19;;;-5.66;100.00
62942;BME280;49042;47.318;19.874;2023-02-16T05:54:37;101737.91;;;-5.48;100.00
62942;BME280;49042;47.318;19.874;2023-02-16T05:57:38;101737.22;;;-5.09;100.00
62942;BME280;49042;47.318;19.874;2023-02-16T06:00:40;101740.16;;;-5.06;100.00
62942;BME280;49042;47.318;19.874;2023-02-16T06:03:42;101745.31;;;-5.28;100.00
62942;BME280;49042;47.318;19.874;2023-02-16T06:06:44;101737.69;;;-5.50;100.00
62942;BME280;49042;47.318;19.874;2023-02-16T06:09:46;101736.41;;;-5.39;100.00
62942;BME280;49042;47.318;19.874;2023-02-16T06:12:47;101737.16;;;-4.87;100.00
62942;BME280;49042;47.318;19.874;2023-02-16T06:15:54;101738.59;;;-4.43;100.00
62942;BME280;49042;47.318;19.874;2023-02-16T06:18:56;101740.25;;;-4.44;100.00
62942;BME280;49042;47.318;19.874;2023-02-16T06:21:58;101736.13;;;-4.58;100.00
62942;BME280;49042;47.318;19.874;2023-02-16T06:25:00;101729.50;;;-4.41;100.00
62942;BME280;49042;47.318;19.874;2023-02-16T06:28:02;101735.22;;;-4.58;100.00
62942;BME280;49042;47.318;19.874;2023-02-16T06:31:04;101737.88;;;-4.80;100.00
62942;BME280;49042;47.318;19.874;2023-02-16T06:34:06;101737.34;;;-4.85;100.00
62942;BME280;49042;47.318;19.874;2023-02-16T06:37:08;101729.19;;;-4.90;100.00
62942;BME280;49042;47.318;19.874;2023-02-16T06:40:10;101724.13;;;-4.59;100.00
62942;BME280;49042;47.318;19.874;2023-02-16T06:43:14;101724.41;;;-3.87;100.00
62942;BME280;49042;47.318;19.874;2023-02-16T06:46:16;101728.53;;;-3.40;100.00
62942;BME280;49042;47.318;19.874;2023-02-16T06:49:19;101722.94;;;-3.12;100.00
62942;BME280;49042;47.318;19.874;2023-02-16T06:52:21;101720.31;;;-2.72;100.00
62942;BME280;49042;47.318;19.874;2023-02-16T06:55:23;101718.66;;;-2.21;100.00
62942;BME280;49042;47.318;19.874;2023-02-16T06:58:25;101724.25;;;-2.17;100.00
62942;BME280;49042;47.318;19.874;2023-02-16T07:01:26;101723.12;;;-2.94;100.00
62942;BME280;49042;47.318;19.874;2023-02-16T07:04:28;101714.41;;;-3.29;100.00
62942;BME280;49042;47.318;19.874;2023-02-16T07:07:30;101714.09;;;-2.74;100.00
62942;BME280;49042;47.318;19.874;2023-02-16T07:10:32;101708.03;;;-2.84;100.00
62942;BME280;49042;47.318;19.874;2023-02-16T07:13:49;101711.78;;;-2.64;100.00
62942;BME280;49042;47.318;19.874;2023-02-16T07:16:51;101708.72;;;-2.94;100.00
62942;BME280;49042;47.318;19.874;2023-02-16T07:19:53;101709.31;;;-1.96;100.00
62942;BME280;49042;47.318;19.874;2023-02-16T07:22:55;101710.00;;;-1.02;100.00
62942;BME280;49042;47.318;19.874;2023-02-16T07:26:02;101699.09;;;-1.53;99.38
62942;BME280;49042;47.318;19.874;2023-02-16T07:29:06;101707.50;;;-1.63;100.00
62942;BME280;49042;47.318;19.874;2023-02-16T07:32:08;101702.09;;;-1.48;100.00
62942;BME280;49042;47.318;19.874;2023-02-16T07:35:10;101706.25;;;-0.97;100.00
62942;BME280;49042;47.318;19.874;2023-02-16T07:38:12;101688.88;;;0.01;96.86
62942;BME280;49042;47.318;19.874;2023-02-16T07:41:13;101690.38;;;1.03;92.07
62942;BME280;49042;47.318;19.874;2023-02-16T07:44:15;101692.28;;;2.04;86.20
62942;BME280;49042;47.318;19.874;2023-02-16T07:47:17;101681.47;;;4.02;73.76
62942;BME280;49042;47.318;19.874;2023-02-16T07:50:18;101682.28;;;5.66;63.73
62942;BME280;49042;47.318;19.874;2023-02-16T07:53:20;101684.63;;;6.64;56.96
62942;BME280;49042;47.318;19.874;2023-02-16T07:56:24;101682.84;;;9.20;50.23
62942;BME280;49042;47.318;19.874;2023-02-16T07:59:26;101683.16;;;11.48;43.39
62942;BME280;49042;47.318;19.874;2023-02-16T08:02:28;101683.38;;;13.15;38.46
62942;BME280;49042;47.318;19.874;2023-02-16T08:05:30;101683.97;;;13.98;35.90
62942;BME280;49042;47.318;19.874;2023-02-16T08:08:32;101683.12;;;16.20;32.62
62942;BME280;49042;47.318;19.874;2023-02-16T08:11:34;101676.00;;;17.60;29.67
62942;BME280;49042;47.318;19.874;2023-02-16T08:14:36;101670.87;;;17.26;29.56
62942;BME280;49042;47.318;19.874;2023-02-16T08:17:38;101667.44;;;17.30;29.79
62942;BME280;49042;47.318;19.874;2023-02-16T08:20:39;101665.91;;;14.85;33.58
62942;BME280;49042;47.318;19.874;2023-02-16T08:24:06;101669.31;;;12.48;38.71
62942;BME280;49042;47.318;19.874;2023-02-16T08:27:08;101670.25;;;11.32;42.19
62942;BME280;49042;47.318;19.874;2023-02-16T08:30:11;101672.62;;;7.20;57.42
62942;BME280;49042;47.318;19.874;2023-02-16T08:33:13;101676.56;;;5.46;69.54
62942;BME280;49042;47.318;19.874;2023-02-16T08:36:16;101685.56;;;4.91;75.64
62942;BME280;49042;47.318;19.874;2023-02-16T08:39:20;101684.66;;;5.63;73.16
62942;BME280;49042;47.318;19.874;2023-02-16T08:42:23;101682.97;;;4.91;81.59
62942;BME280;49042;47.318;19.874;2023-02-16T08:45:24;101678.25;;;4.86;83.89
62942;BME280;49042;47.318;19.874;2023-02-16T08:48:27;101670.56;;;4.28;89.74
62942;BME280;49042;47.318;19.874;2023-02-16T08:51:42;101670.13;;;4.22;92.27
62942;BME280;49042;47.318;19.874;2023-02-16T08:54:44;101669.06;;;8.75;69.80
62942;BME280;49042;47.318;19.874;2023-02-16T08:57:46;101665.47;;;13.03;47.63
62942;BME280;49042;47.318;19.874;2023-02-16T09:00:48;101669.03;;;13.05;46.85
62942;BME280;49042;47.318;19.874;2023-02-16T09:03:50;101675.59;;;17.04;37.26
62942;BME280;49042;47.318;19.874;2023-02-16T09:06:52;101682.25;;;18.56;33.21
62942;BME280;49042;47.318;19.874;2023-02-16T09:09:54;101677.72;;;17.60;34.70
62942;BME280;49042;47.318;19.874;2023-02-16T09:12:56;101671.22;;;20.10;30.53
62942;BME280;49042;47.318;19.874;2023-02-16T09:16:03;101674.25;;;19.05;31.52
62942;BME280;49042;47.318;19.874;2023-02-16T09:19:06;101679.38;;;20.27;30.02
62942;BME280;49042;47.318;19.874;2023-02-16T09:22:07;101678.94;;;19.22;31.44
62942;BME280;49042;47.318;19.874;2023-02-16T09:25:09;101677.22;;;20.82;28.25
62942;BME280;49042;47.318;19.874;2023-02-16T09:28:11;101681.09;;;21.27;27.83
62942;BME280;49042;47.318;19.874;2023-02-16T09:31:22;101675.88;;;21.46;27.36
62942;BME280;49042;47.318;19.874;2023-02-16T09:34:27;101677.50;;;19.45;29.95
62942;BME280;49042;47.318;19.874;2023-02-16T09:37:31;101677.97;;;22.25;26.54
62942;BME280;49042;47.318;19.874;2023-02-16T09:40:35;101673.34;;;19.03;30.50
62942;BME280;49042;47.318;19.874;2023-02-16T09:46:56;101676.72;;;21.42;27.32
62942;BME280;49042;47.318;19.874;2023-02-16T09:50:04;101669.28;;;19.26;29.74
62942;BME280;49042;47.318;19.874;2023-02-16T09:53:12;101680.69;;;18.66;31.57
62942;BME280;49042;47.318;19.874;2023-02-16T09:56:36;101685.44;;;15.47;36.63
62942;BME280;49042;47.318;19.874;2023-02-16T10:00:24;101679.22;;;13.88;40.93
62942;BME280;49042;47.318;19.874;2023-02-16T10:03:51;101671.53;;;11.99;45.84
62942;BME280;49042;47.318;19.874;2023-02-16T10:06:57;101678.94;;;10.09;53.31
62942;BME280;49042;47.318;19.874;2023-02-16T10:10:03;101670.16;;;11.31;49.82
62942;BME280;49042;47.318;19.874;2023-02-16T10:16:45;101674.03;;;10.66;51.25
62942;BME280;49042;47.318;19.874;2023-02-16T10:19:55;101662.00;;;9.84;54.29
62942;BME280;49042;47.318;19.874;2023-02-16T10:26:36;101652.94;;;9.94;54.26
62942;BME280;49042;47.318;19.874;2023-02-16T10:29:39;101654.31;;;10.04;55.08
62942;BME280;49042;47.318;19.874;2023-02-16T10:32:56;101648.94;;;9.50;56.59
62942;BME280;49042;47.318;19.874;2023-02-16T10:36:08;101644.72;;;9.37;57.69
62942;BME280;49042;47.318;19.874;2023-02-16T10:43:00;101645.25;;;9.15;60.29
62942;BME280;49042;47.318;19.874;2023-02-16T10:46:05;101636.38;;;8.96;60.07
62942;BME280;49042;47.318;19.874;2023-02-16T10:49:10;101638.19;;;8.82;58.92
62942;BME280;49042;47.318;19.874;2023-02-16T10:52:13;101635.47;;;8.50;59.60
62942;BME280;49042;47.318;19.874;2023-02-16T10:55:16;101628.75;;;8.99;58.54
62942;BME280;49042;47.318;19.874;2023-02-16T10:58:44;101625.28;;;8.83;59.16
62942;BME280;49042;47.318;19.874;2023-02-16T11:01:54;101625.00;;;8.78;58.54
62942;BME280;49042;47.318;19.874;2023-02-16T11:04:58;101615.78;;;9.16;56.41
62942;BME280;49042;47.318;19.874;2023-02-16T11:08:00;101623.25;;;9.41;56.88
62942;BME280;49042;47.318;19.874;2023-02-16T11:11:08;101617.78;;;9.37;55.99
62942;BME280;49042;47.318;19.874;2023-02-16T11:14:25;101614.16;;;8.71;58.14
62942;BME280;49042;47.318;19.874;2023-02-16T11:17:32;101612.69;;;8.91;56.58
62942;BME280;49042;47.318;19.874;2023-02-16T11:20:51;101613.59;;;8.92;58.08
62942;BME280;49042;47.318;19.874;2023-02-16T11:23:58;101618.75;;;8.75;56.26
62942;BME280;49042;47.318;19.874;2023-02-16T11:27:16;101606.41;;;8.57;56.87
62942;BME280;49042;47.318;19.874;2023-02-16T11:30:27;101596.28;;;8.77;57.35
62942;BME280;49042;47.318;19.874;2023-02-16T11:33:31;101599.94;;;9.11;56.88
62942;BME280;49042;47.318;19.874;2023-02-16T11:36:36;101594.75;;;8.81;57.67
62942;BME280;49042;47.318;19.874;2023-02-16T11:39:47;101593.22;;;9.31;56.56
62942;BME280;49042;47.318;19.874;2023-02-16T11:42:52;101586.91;;;9.43;55.89
62942;BME280;49042;47.318;19.874;2023-02-16T11:45:57;101589.75;;;9.16;56.33
62942;BME280;49042;47.318;19.874;2023-02-16T11:49:29;101580.25;;;9.16;55.65
62942;BME280;49042;47.318;19.874;2023-02-16T11:52:32;101580.78;;;9.26;55.36
62942;BME280;49042;47.318;19.874;2023-02-16T11:55:35;101575.97;;;9.02;55.14
62942;BME280;49042;47.318;19.874;2023-02-16T11:58:37;101572.44;;;9.16;54.83
62942;BME280;49042;47.318;19.874;2023-02-16T12:02:01;101564.84;;;9.36;54.87
62942;BME280;49042;47.318;19.874;2023-02-16T12:05:45;101569.91;;;9.67;53.80
62942;BME280;49042;47.318;19.874;2023-02-16T12:09:07;101566.63;;;9.54;54.50
62942;BME280;49042;47.318;19.874;2023-02-16T12:12:17;101556.78;;;9.65;54.32
62942;BME280;49042;47.318;19.874;2023-02-16T12:15:26;101554.28;;;9.50;54.47
62942;BME280;49042;47.318;19.874;2023-02-16T12:21:52;101548.31;;;9.52;54.84
62942;BME280;49042;47.318;19.874;2023-02-16T12:35:06;101532.84;;;9.56;54.63
62942;BME280;49042;47.318;19.874;2023-02-16T12:41:20;101506.19;;;9.43;54.87
62942;BME280;49042;47.318;19.874;2023-02-16T12:44:31;101503.16;;;9.18;55.60
62942;BME280;49042;47.318;19.874;2023-02-16T12:47:39;101503.63;;;9.11;55.47
62942;BME280;49042;47.318;19.874;2023-02-16T12:50:42;101506.06;;;9.08;56.18
62942;BME280;49042;47.318;19.874;2023-02-16T12:57:02;101494.28;;;9.31;55.31
62942;BME280;49042;47.318;19.874;2023-02-16T13:10:39;101464.72;;;9.48;54.48
62942;BME280;49042;47.318;19.874;2023-02-16T13:13:45;101456.59;;;9.41;53.51
62942;BME280;49042;47.318;19.874;2023-02-16T13:17:00;101453.75;;;9.53;53.37
62942;BME280;49042;47.318;19.874;2023-02-16T13:20:11;101443.41;;;9.55;53.41
62942;BME280;49042;47.318;19.874;2023-02-16T13:27:26;101433.44;;;9.81;53.10
62942;BME280;49042;47.318;19.874;2023-02-16T13:33:50;101443.19;;;9.50;53.40
62942;BME280;49042;47.318;19.874;2023-02-16T13:37:16;101440.81;;;9.55;53.20
62942;BME280;49042;47.318;19.874;2023-02-16T13:43:49;101418.69;;;9.47;53.35
62942;BME280;49042;47.318;19.874;2023-02-16T13:46:53;101427.78;;;9.55;53.16
62942;BME280;49042;47.318;19.874;2023-02-16T13:49:59;101423.97;;;9.48;53.72
62942;BME280;49042;47.318;19.874;2023-02-16T13:53:19;101418.44;;;9.42;53.53
62942;BME280;49042;47.318;19.874;2023-02-16T13:56:32;101410.03;;;9.48;54.03
62942;BME280;49042;47.318;19.874;2023-02-16T14:02:57;101401.88;;;9.40;53.58
62942;BME280;49042;47.318;19.874;2023-02-16T14:06:40;101400.19;;;9.59;52.97
62942;BME280;49042;47.318;19.874;2023-02-16T14:12:42;101403.06;;;11.55;48.10
62942;BME280;49042;47.318;19.874;2023-02-16T14:15:52;101394.47;;;13.95;41.85
62942;BME280;49042;47.318;19.874;2023-02-16T14:18:56;101399.16;;;14.93;38.79
62942;BME280;49042;47.318;19.874;2023-02-16T14:22:10;101390.44;;;15.61;37.10
62942;BME280;49042;47.318;19.874;2023-02-16T14:31:22;101393.09;;;12.32;42.82
62942;BME280;49042;47.318;19.874;2023-02-16T14:34:37;101402.47;;;12.73;42.93
62942;BME280;49042;47.318;19.874;2023-02-16T14:37:49;101397.44;;;11.67;45.78
62942;BME280;49042;47.318;19.874;2023-02-16T14:40:56;101393.41;;;12.63;43.11
62942;BME280;49042;47.318;19.874;2023-02-16T14:47:21;101387.09;;;14.69;38.48
62942;BME280;49042;47.318;19.874;2023-02-16T14:50:56;101384.00;;;13.96;40.12
62942;BME280;49042;47.318;19.874;2023-02-16T14:57:49;101397.94;;;11.37;45.68
62942;BME280;49042;47.318;19.874;2023-02-16T15:01:04;101402.31;;;10.58;48.14
62942;BME280;49042;47.318;19.874;2023-02-16T15:04:10;101390.97;;;9.66;51.14
62942;BME280;49042;47.318;19.874;2023-02-16T15:07:11;101392.34;;;9.24;53.22
62942;BME280;49042;47.318;19.874;2023-02-16T15:10:13;101396.41;;;9.02;54.34
62942;BME280;49042;47.318;19.874;2023-02-16T15:13:21;101393.34;;;8.92;55.26
62942;BME280;49042;47.318;19.874;2023-02-16T15:16:23;101392.25;;;8.40;57.64
62942;BME280;49042;47.318;19.874;2023-02-16T15:19:28;101400.09;;;8.09;59.01
62942;BME280;49042;47.318;19.874;2023-02-16T15:22:31;101392.34;;;7.79;60.89
62942;BME280;49042;47.318;19.874;2023-02-16T15:25:38;101393.31;;;7.81;61.14
62942;BME280;49042;47.318;19.874;2023-02-16T15:28:41;101389.22;;;7.54;62.14
62942;BME280;49042;47.318;19.874;2023-02-16T15:31:43;101385.00;;;7.56;62.29
62942;BME280;49042;47.318;19.874;2023-02-16T15:34:46;101390.81;;;7.37;63.50
62942;BME280;49042;47.318;19.874;2023-02-16T15:37:58;101395.22;;;7.38;63.73
62942;BME280;49042;47.318;19.874;2023-02-16T15:41:03;101398.56;;;7.06;65.34
62942;BME280;49042;47.318;19.874;2023-02-16T15:44:33;101395.47;;;6.99;66.40
62942;BME280;49042;47.318;19.874;2023-02-16T15:47:37;101387.62;;;7.12;65.93
62942;BME280;49042;47.318;19.874;2023-02-16T15:50:39;101386.13;;;6.87;67.02
62942;BME280;49042;47.318;19.874;2023-02-16T15:53:54;101378.63;;;6.63;68.59
62942;BME280;49042;47.318;19.874;2023-02-16T16:00:23;101381.53;;;6.40;70.67
62942;BME280;49042;47.318;19.874;2023-02-16T16:03:26;101381.88;;;6.31;71.73
62942;BME280;49042;47.318;19.874;2023-02-16T16:06:33;101380.78;;;6.14;72.95
62942;BME280;49042;47.318;19.874;2023-02-16T16:09:35;101382.75;;;6.18;72.84
62942;BME280;49042;47.318;19.874;2023-02-16T16:12:37;101386.41;;;5.95;75.58
62942;BME280;49042;47.318;19.874;2023-02-16T16:15:43;101377.28;;;5.86;76.28
62942;BME280;49042;47.318;19.874;2023-02-16T16:18:47;101382.84;;;5.93;75.45
62942;BME280;49042;47.318;19.874;2023-02-16T16:21:53;101385.31;;;5.91;75.29
62942;BME280;49042;47.318;19.874;2023-02-16T16:24:56;101378.97;;;5.86;75.01
62942;BME280;49042;47.318;19.874;2023-02-16T16:28:03;101375.66;;;5.61;76.99
62942;BME280;49042;47.318;19.874;2023-02-16T16:34:31;101381.31;;;5.69;75.56
62942;BME280;49042;47.318;19.874;2023-02-16T16:37:35;101387.31;;;5.29;79.94
62942;BME280;49042;47.318;19.874;2023-02-16T16:40:38;101376.50;;;5.48;77.77
62942;BME280;49042;47.318;19.874;2023-02-16T16:43:55;101385.13;;;5.35;78.77
62942;BME280;49042;47.318;19.874;2023-02-16T16:47:36;101382.22;;;5.30;78.36
62942;BME280;49042;47.318;19.874;2023-02-16T16:50:41;101390.25;;;5.21;78.63
62942;BME280;49042;47.318;19.874;2023-02-16T16:54:01;101397.06;;;5.07;78.69
62942;BME280;49042;47.318;19.874;2023-02-16T16:57:17;101399.47;;;4.92;80.29
62942;BME280;49042;47.318;19.874;2023-02-16T17:00:21;101399.03;;;4.98;79.76
62942;BME280;49042;47.318;19.874;2023-02-16T17:03:24;101391.19;;;4.84;80.95
62942;BME280;49042;47.318;19.874;2023-02-16T17:06:27;101388.97;;;4.77;81.64
62942;BME280;49042;47.318;19.874;2023-02-16T17:09:29;101388.75;;;4.74;81.27
62942;BME280;49042;47.318;19.874;2023-02-16T17:12:34;101386.28;;;4.63;81.85
62942;BME280;49042;47.318;19.874;2023-02-16T17:16:14;101392.47;;;4.65;82.17
62942;BME280;49042;47.318;19.874;2023-02-16T17:19:20;101392.56;;;4.67;82.14
62942;BME280;49042;47.318;19.874;2023-02-16T17:22:24;101393.13;;;3.89;87.51
62942;BME280;49042;47.318;19.874;2023-02-16T17:25:26;101390.75;;;4.04;85.35
62942;BME280;49042;47.318;19.874;2023-02-16T17:28:29;101391.50;;;3.79;86.66
62942;BME280;49042;47.318;19.874;2023-02-16T17:31:38;101390.16;;;3.72;87.43
62942;BME280;49042;47.318;19.874;2023-02-16T17:34:40;101392.53;;;3.81;86.48
62942;BME280;49042;47.318;19.874;2023-02-16T17:37:43;101392.75;;;3.96;85.34
62942;BME280;49042;47.318;19.874;2023-02-16T17:40:52;101387.97;;;3.89;85.87
62942;BME280;49042;47.318;19.874;2023-02-16T17:44:01;101387.47;;;3.82;86.73
62942;BME280;49042;47.318;19.874;2023-02-16T17:47:05;101392.19;;;3.76;87.19
62942;BME280;49042;47.318;19.874;2023-02-16T17:50:11;101388.84;;;3.77;86.81
62942;BME280;49042;47.318;19.874;2023-02-16T17:53:16;101391.88;;;3.37;89.69
62942;BME280;49042;47.318;19.874;2023-02-16T17:56:20;101386.00;;;3.62;89.28